sensor_id;sensor_type;location;lat;lon;timestamp;P1;durP1;ratioP1;P2;durP2;ratioP2
30571;SDS011;17348;50.948;10.696;2023-04-15T00:02:52;8.93;;;5.43;;
30571;SDS011;17348;50.948;10.696;2023-04-15T00:05:54;9.10;;;5.63;;
30571;SDS011;17348;50.948;10.696;2023-04-15T00:08:59;10.20;;;5.13;;
30571;SDS011;17348;50.948;10.696;2023-04-15T00:12:01;8.00;;;5.27;;
30571;SDS011;17348;50.948;10.696;2023-04-15T00:15:10;9.87;;;5.70;;
30571;SDS011;17348;50.948;10.696;2023-04-15T00:18:13;8.77;;;4.93;;
30571;SDS011;17348;50.948;10.696;2023-04-15T00:21:15;9.37;;;5.60;;
30571;SDS011;17348;50.948;10.696;2023-04-15T00:24:17;10.53;;;5.97;;
30571;SDS011;17348;50.948;10.696;2023-04-15T00:27:19;10.07;;;4.57;;
30571;SDS011;17348;50.948;10.696;2023-04-15T00:30:23;11.00;;;6.10;;
30571;SDS011;17348;50.948;10.696;2023-04-15T00:33:26;14.33;;;6.00;;
30571;SDS011;17348;50.948;10.696;2023-04-15T00:36:28;15.00;;;6.80;;
30571;SDS011;17348;50.948;10.696;2023-04-15T00:39:31;9.93;;;5.93;;
30571;SDS011;17348;50.948;10.696;2023-04-15T00:42:33;14.80;;;5.70;;
30571;SDS011;17348;50.948;10.696;2023-04-15T00:45:38;10.83;;;5.20;;
30571;SDS011;17348;50.948;10.696;2023-04-15T00:48:40;9.83;;;5.40;;
30571;SDS011;17348;50.948;10.696;2023-04-15T00:51:43;11.30;;;6.57;;
30571;SDS011;17348;50.948;10.696;2023-04-15T00:54:45;16.00;;;6.40;;
30571;SDS011;17348;50.948;10.696;2023-04-15T00:57:48;9.57;;;6.10;;
30571;SDS011;17348;50.948;10.696;2023-04-15T01:00:53;9.80;;;6.07;;
30571;SDS011;17348;50.948;10.696;2023-04-15T01:03:56;12.53;;;6.60;;
30571;SDS011;17348;50.948;10.696;2023-04-15T01:06:58;11.27;;;6.93;;
30571;SDS011;17348;50.948;10.696;2023-04-15T01:10:02;11.50;;;6.43;;
30571;SDS011;17348;50.948;10.696;2023-04-15T01:13:04;14.13;;;7.30;;
30571;SDS011;17348;50.948;10.696;2023-04-15T01:16:08;13.60;;;7.03;;
30571;SDS011;17348;50.948;10.696;2023-04-15T01:19:11;16.00;;;7.60;;
30571;SDS011;17348;50.948;10.696;2023-04-15T01:22:17;13.63;;;7.40;;
30571;SDS011;17348;50.948;10.696;2023-04-15T01:25:25;11.90;;;7.10;;
30571;SDS011;17348;50.948;10.696;2023-04-15T01:28:31;12.67;;;7.20;;
30571;SDS011;17348;50.948;10.696;2023-04-15T01:31:34;15.33;;;7.87;;
30571;SDS011;17348;50.948;10.696;2023-04-15T01:34:37;13.53;;;6.87;;
30571;SDS011;17348;50.948;10.696;2023-04-15T01:37:39;13.70;;;7.63;;
30571;SDS011;17348;50.948;10.696;2023-04-15T01:40:43;15.80;;;7.20;;
30571;SDS011;17348;50.948;10.696;2023-04-15T01:43:45;9.90;;;6.10;;
30571;SDS011;17348;50.948;10.696;2023-04-15T01:46:47;14.17;;;6.67;;
30571;SDS011;17348;50.948;10.696;2023-04-15T01:49:50;13.07;;;6.20;;
30571;SDS011;17348;50.948;10.696;2023-04-15T01:52:52;12.47;;;7.03;;
30571;SDS011;17348;50.948;10.696;2023-04-15T01:55:56;18.47;;;7.17;;
30571;SDS011;17348;50.948;10.696;2023-04-15T01:58:58;11.20;;;6.33;;
30571;SDS011;17348;50.948;10.696;2023-04-15T02:02:00;19.17;;;7.07;;
30571;SDS011;17348;50.948;10.696;2023-04-15T02:05:04;13.70;;;7.27;;
30571;SDS011;17348;50.948;10.696;2023-04-15T02:08:06;13.37;;;7.50;;
30571;SDS011;17348;50.948;10.696;2023-04-15T02:11:11;13.53;;;7.10;;
30571;SDS011;17348;50.948;10.696;2023-04-15T02:14:13;12.03;;;7.17;;
30571;SDS011;17348;50.948;10.696;2023-04-15T02:17:15;13.10;;;7.20;;
30571;SDS011;17348;50.948;10.696;2023-04-15T02:20:18;15.57;;;7.90;;
30571;SDS011;17348;50.948;10.696;2023-04-15T02:23:21;13.60;;;7.13;;
30571;SDS011;17348;50.948;10.696;2023-04-15T02:26:25;15.23;;;7.23;;
30571;SDS011;17348;50.948;10.696;2023-04-15T02:29:28;11.87;;;7.00;;
30571;SDS011;17348;50.948;10.696;2023-04-15T02:32:32;13.10;;;6.87;;
30571;SDS011;17348;50.948;10.696;2023-04-15T02:35:35;16.93;;;7.63;;
30571;SDS011;17348;50.948;10.696;2023-04-15T02:38:41;12.93;;;7.00;;
30571;SDS011;17348;50.948;10.696;2023-04-15T02:41:45;13.87;;;8.03;;
30571;SDS011;17348;50.948;10.696;2023-04-15T02:44:51;13.10;;;7.33;;
30571;SDS011;17348;50.948;10.696;2023-04-15T02:47:54;11.93;;;6.80;;
30571;SDS011;17348;50.948;10.696;2023-04-15T02:51:09;14.70;;;7.70;;
30571;SDS011;17348;50.948;10.696;2023-04-15T02:54:13;16.10;;;7.53;;
30571;SDS011;17348;50.948;10.696;2023-04-15T02:57:16;14.33;;;6.87;;
30571;SDS011;17348;50.948;10.696;2023-04-15T03:00:19;18.13;;;7.47;;
30571;SDS011;17348;50.948;10.696;2023-04-15T03:03:21;13.60;;;7.67;;
30571;SDS011;17348;50.948;10.696;2023-04-15T03:06:24;17.03;;;7.90;;
30571;SDS011;17348;50.948;10.696;2023-04-15T03:09:26;14.03;;;7.23;;
30571;SDS011;17348;50.948;10.696;2023-04-15T03:12:30;13.63;;;7.40;;
30571;SDS011;17348;50.948;10.696;2023-04-15T03:15:32;14.27;;;7.77;;
30571;SDS011;17348;50.948;10.696;2023-04-15T03:18:35;11.90;;;7.20;;
30571;SDS011;17348;50.948;10.696;2023-04-15T03:21:37;15.93;;;8.20;;
30571;SDS011;17348;50.948;10.696;2023-04-15T03:24:40;17.53;;;8.87;;
30571;SDS011;17348;50.948;10.696;2023-04-15T03:27:43;15.77;;;7.53;;
30571;SDS011;17348;50.948;10.696;2023-04-15T03:30:46;14.67;;;8.03;;
30571;SDS011;17348;50.948;10.696;2023-04-15T03:33:48;12.87;;;7.47;;
30571;SDS011;17348;50.948;10.696;2023-04-15T03:36:51;14.93;;;7.80;;
30571;SDS011;17348;50.948;10.696;2023-04-15T03:39:53;16.50;;;8.03;;
30571;SDS011;17348;50.948;10.696;2023-04-15T03:42:57;23.83;;;7.77;;
30571;SDS011;17348;50.948;10.696;2023-04-15T03:46:00;19.87;;;7.50;;
30571;SDS011;17348;50.948;10.696;2023-04-15T03:49:02;15.37;;;7.77;;
30571;SDS011;17348;50.948;10.696;2023-04-15T03:52:05;17.87;;;7.30;;
30571;SDS011;17348;50.948;10.696;2023-04-15T03:55:08;15.23;;;7.43;;
30571;SDS011;17348;50.948;10.696;2023-04-15T03:58:12;14.70;;;7.43;;
30571;SDS011;17348;50.948;10.696;2023-04-15T04:01:14;13.40;;;7.50;;
30571;SDS011;17348;50.948;10.696;2023-04-15T04:04:17;13.90;;;7.17;;
30571;SDS011;17348;50.948;10.696;2023-04-15T04:07:19;15.77;;;7.37;;
30571;SDS011;17348;50.948;10.696;2023-04-15T04:10:23;12.10;;;6.57;;
30571;SDS011;17348;50.948;10.696;2023-04-15T04:13:27;16.07;;;6.83;;
30571;SDS011;17348;50.948;10.696;2023-04-15T04:16:30;12.70;;;5.97;;
30571;SDS011;17348;50.948;10.696;2023-04-15T04:19:32;11.93;;;7.00;;
30571;SDS011;17348;50.948;10.696;2023-04-15T04:22:36;13.77;;;6.77;;
30571;SDS011;17348;50.948;10.696;2023-04-15T04:25:39;12.23;;;6.80;;
30571;SDS011;17348;50.948;10.696;2023-04-15T04:28:43;14.87;;;6.83;;
30571;SDS011;17348;50.948;10.696;2023-04-15T04:31:45;13.90;;;6.83;;
30571;SDS011;17348;50.948;10.696;2023-04-15T04:34:48;12.70;;;6.87;;
30571;SDS011;17348;50.948;10.696;2023-04-15T04:37:50;10.53;;;6.33;;
30571;SDS011;17348;50.948;10.696;2023-04-15T04:40:53;16.40;;;6.07;;
30571;SDS011;17348;50.948;10.696;2023-04-15T04:43:57;10.77;;;6.53;;
30571;SDS011;17348;50.948;10.696;2023-04-15T04:46:59;10.13;;;6.57;;
30571;SDS011;17348;50.948;10.696;2023-04-15T04:50:01;11.70;;;6.13;;
30571;SDS011;17348;50.948;10.696;2023-04-15T04:53:04;12.77;;;6.50;;
30571;SDS011;17348;50.948;10.696;2023-04-15T04:56:06;9.50;;;5.83;;
30571;SDS011;17348;50.948;10.696;2023-04-15T04:59:10;10.07;;;5.20;;
30571;SDS011;17348;50.948;10.696;2023-04-15T05:02:13;11.57;;;5.27;;
30571;SDS011;17348;50.948;10.696;2023-04-15T05:05:15;11.67;;;5.90;;
30571;SDS011;17348;50.948;10.696;2023-04-15T05:08:18;10.10;;;5.93;;
30571;SDS011;17348;50.948;10.696;2023-04-15T05:11:20;9.00;;;5.60;;
30571;SDS011;17348;50.948;10.696;2023-04-15T05:14:24;10.17;;;5.73;;
30571;SDS011;17348;50.948;10.696;2023-04-15T05:17:26;10.63;;;5.93;;
30571;SDS011;17348;50.948;10.696;2023-04-15T05:20:30;12.40;;;6.10;;
30571;SDS011;17348;50.948;10.696;2023-04-15T05:23:33;12.83;;;6.87;;
30571;SDS011;17348;50.948;10.696;2023-04-15T05:26:35;9.57;;;5.73;;
30571;SDS011;17348;50.948;10.696;2023-04-15T05:29:39;10.67;;;5.20;;
30571;SDS011;17348;50.948;10.696;2023-04-15T05:32:42;12.17;;;6.60;;
30571;SDS011;17348;50.948;10.696;2023-04-15T05:35:44;12.33;;;6.53;;
30571;SDS011;17348;50.948;10.696;2023-04-15T05:38:46;10.03;;;5.53;;
30571;SDS011;17348;50.948;10.696;2023-04-15T05:41:49;7.93;;;4.90;;
30571;SDS011;17348;50.948;10.696;2023-04-15T05:44:53;9.20;;;5.33;;
30571;SDS011;17348;50.948;10.696;2023-04-15T05:47:55;10.97;;;6.13;;
30571;SDS011;17348;50.948;10.696;2023-04-15T05:50:57;11.40;;;6.77;;
30571;SDS011;17348;50.948;10.696;2023-04-15T05:54:00;13.77;;;6.40;;
30571;SDS011;17348;50.948;10.696;2023-04-15T05:57:02;10.70;;;5.43;;
30571;SDS011;17348;50.948;10.696;2023-04-15T06:00:06;10.27;;;6.10;;
30571;SDS011;17348;50.948;10.696;2023-04-15T06:03:09;9.50;;;4.60;;
30571;SDS011;17348;50.948;10.696;2023-04-15T06:06:12;10.27;;;4.97;;
30571;SDS011;17348;50.948;10.696;2023-04-15T06:09:15;9.17;;;5.00;;
30571;SDS011;17348;50.948;10.696;2023-04-15T06:12:17;6.97;;;3.93;;
30571;SDS011;17348;50.948;10.696;2023-04-15T06:15:21;9.10;;;4.80;;
30571;SDS011;17348;50.948;10.696;2023-04-15T06:18:24;7.13;;;4.63;;
30571;SDS011;17348;50.948;10.696;2023-04-15T06:21:26;8.27;;;4.47;;
30571;SDS011;17348;50.948;10.696;2023-04-15T06:24:29;8.27;;;4.47;;
30571;SDS011;17348;50.948;10.696;2023-04-15T06:27:32;7.90;;;4.53;;
30571;SDS011;17348;50.948;10.696;2023-04-15T06:30:36;9.27;;;4.73;;
30571;SDS011;17348;50.948;10.696;2023-04-15T06:33:39;9.97;;;5.70;;
30571;SDS011;17348;50.948;10.696;2023-04-15T06:36:41;9.77;;;4.27;;
30571;SDS011;17348;50.948;10.696;2023-04-15T06:39:44;10.53;;;4.50;;
30571;SDS011;17348;50.948;10.696;2023-04-15T06:42:46;7.63;;;4.23;;
30571;SDS011;17348;50.948;10.696;2023-04-15T06:45:50;10.73;;;5.70;;
30571;SDS011;17348;50.948;10.696;2023-04-15T06:48:53;12.23;;;5.20;;
30571;SDS011;17348;50.948;10.696;2023-04-15T06:51:55;8.37;;;4.90;;
30571;SDS011;17348;50.948;10.696;2023-04-15T06:54:57;11.43;;;4.90;;
30571;SDS011;17348;50.948;10.696;2023-04-15T06:58:00;6.83;;;3.77;;
30571;SDS011;17348;50.948;10.696;2023-04-15T07:01:04;8.23;;;4.43;;
30571;SDS011;17348;50.948;10.696;2023-04-15T07:04:07;7.80;;;4.47;;
30571;SDS011;17348;50.948;10.696;2023-04-15T07:07:10;6.73;;;3.93;;
30571;SDS011;17348;50.948;10.696;2023-04-15T07:10:13;8.00;;;4.30;;
30571;SDS011;17348;50.948;10.696;2023-04-15T07:13:15;8.07;;;4.93;;
30571;SDS011;17348;50.948;10.696;2023-04-15T07:16:19;5.63;;;3.40;;
30571;SDS011;17348;50.948;10.696;2023-04-15T07:19:22;7.97;;;4.13;;
30571;SDS011;17348;50.948;10.696;2023-04-15T07:22:24;8.33;;;5.03;;
30571;SDS011;17348;50.948;10.696;2023-04-15T07:25:27;7.10;;;4.13;;
30571;SDS011;17348;50.948;10.696;2023-04-15T07:28:31;7.47;;;3.93;;
30571;SDS011;17348;50.948;10.696;2023-04-15T07:31:35;7.00;;;3.50;;
30571;SDS011;17348;50.948;10.696;2023-04-15T07:34:37;7.53;;;3.90;;
30571;SDS011;17348;50.948;10.696;2023-04-15T07:37:41;9.30;;;4.20;;
30571;SDS011;17348;50.948;10.696;2023-04-15T07:40:44;6.70;;;3.73;;
30571;SDS011;17348;50.948;10.696;2023-04-15T07:43:47;7.50;;;3.60;;
30571;SDS011;17348;50.948;10.696;2023-04-15T07:46:52;6.13;;;3.37;;
30571;SDS011;17348;50.948;10.696;2023-04-15T07:49:54;6.30;;;3.53;;
30571;SDS011;17348;50.948;10.696;2023-04-15T07:52:59;14.70;;;8.63;;
30571;SDS011;17348;50.948;10.696;2023-04-15T07:56:02;10.80;;;5.03;;
30571;SDS011;17348;50.948;10.696;2023-04-15T07:59:06;9.23;;;4.67;;
30571;SDS011;17348;50.948;10.696;2023-04-15T08:02:11;10.20;;;4.07;;
30571;SDS011;17348;50.948;10.696;2023-04-15T08:05:14;6.67;;;3.70;;
30571;SDS011;17348;50.948;10.696;2023-04-15T08:08:16;5.10;;;3.07;;
30571;SDS011;17348;50.948;10.696;2023-04-15T08:11:18;6.00;;;3.20;;
30571;SDS011;17348;50.948;10.696;2023-04-15T08:14:21;7.90;;;3.90;;
30571;SDS011;17348;50.948;10.696;2023-04-15T08:17:27;7.33;;;3.40;;
30571;SDS011;17348;50.948;10.696;2023-04-15T08:20:30;4.50;;;2.73;;
30571;SDS011;17348;50.948;10.696;2023-04-15T08:23:33;5.83;;;3.33;;
30571;SDS011;17348;50.948;10.696;2023-04-15T08:26:35;5.57;;;2.87;;
30571;SDS011;17348;50.948;10.696;2023-04-15T08:29:38;5.67;;;2.63;;
30571;SDS011;17348;50.948;10.696;2023-04-15T08:32:42;5.90;;;3.07;;
30571;SDS011;17348;50.948;10.696;2023-04-15T08:35:47;5.20;;;3.13;;
30571;SDS011;17348;50.948;10.696;2023-04-15T08:38:50;6.67;;;3.40;;
30571;SDS011;17348;50.948;10.696;2023-04-15T08:41:55;5.53;;;3.40;;
30571;SDS011;17348;50.948;10.696;2023-04-15T08:45:03;6.07;;;2.77;;
30571;SDS011;17348;50.948;10.696;2023-04-15T08:48:07;6.43;;;3.10;;
30571;SDS011;17348;50.948;10.696;2023-04-15T08:51:14;7.10;;;3.40;;
30571;SDS011;17348;50.948;10.696;2023-04-15T08:54:17;6.17;;;3.03;;
30571;SDS011;17348;50.948;10.696;2023-04-15T08:57:20;4.60;;;3.03;;
30571;SDS011;17348;50.948;10.696;2023-04-15T09:00:23;5.80;;;3.00;;
30571;SDS011;17348;50.948;10.696;2023-04-15T09:03:27;4.17;;;2.30;;
30571;SDS011;17348;50.948;10.696;2023-04-15T09:06:31;3.60;;;1.90;;
30571;SDS011;17348;50.948;10.696;2023-04-15T09:09:33;4.40;;;2.30;;
30571;SDS011;17348;50.948;10.696;2023-04-15T09:12:37;3.63;;;2.07;;
30571;SDS011;17348;50.948;10.696;2023-04-15T09:15:39;4.27;;;2.17;;
30571;SDS011;17348;50.948;10.696;2023-04-15T09:18:43;4.37;;;2.47;;
30571;SDS011;17348;50.948;10.696;2023-04-15T09:21:46;2.67;;;1.83;;
30571;SDS011;17348;50.948;10.696;2023-04-15T09:24:49;3.67;;;2.20;;
30571;SDS011;17348;50.948;10.696;2023-04-15T09:27:52;2.47;;;1.63;;
30571;SDS011;17348;50.948;10.696;2023-04-15T09:30:56;4.20;;;2.23;;
30571;SDS011;17348;50.948;10.696;2023-04-15T09:34:00;3.97;;;1.77;;
30571;SDS011;17348;50.948;10.696;2023-04-15T09:37:03;2.43;;;1.90;;
30571;SDS011;17348;50.948;10.696;2023-04-15T09:40:06;3.10;;;1.97;;
30571;SDS011;17348;50.948;10.696;2023-04-15T09:43:09;4.87;;;2.53;;
30571;SDS011;17348;50.948;10.696;2023-04-15T09:46:13;3.93;;;2.43;;
30571;SDS011;17348;50.948;10.696;2023-04-15T09:49:17;4.53;;;2.63;;
30571;SDS011;17348;50.948;10.696;2023-04-15T09:52:20;5.03;;;2.83;;
30571;SDS011;17348;50.948;10.696;2023-04-15T09:55:22;5.50;;;3.10;;
30571;SDS011;17348;50.948;10.696;2023-04-15T09:58:25;5.53;;;3.20;;
30571;SDS011;17348;50.948;10.696;2023-04-15T10:01:29;7.10;;;2.87;;
30571;SDS011;17348;50.948;10.696;2023-04-15T10:04:35;8.17;;;3.60;;
30571;SDS011;17348;50.948;10.696;2023-04-15T10:07:42;4.97;;;2.90;;
30571;SDS011;17348;50.948;10.696;2023-04-15T10:10:45;6.20;;;3.40;;
30571;SDS011;17348;50.948;10.696;2023-04-15T10:13:49;6.17;;;2.90;;
30571;SDS011;17348;50.948;10.696;2023-04-15T10:16:52;4.57;;;2.53;;
30571;SDS011;17348;50.948;10.696;2023-04-15T10:20:00;3.77;;;2.10;;
30571;SDS011;17348;50.948;10.696;2023-04-15T10:23:05;3.47;;;2.40;;
30571;SDS011;17348;50.948;10.696;2023-04-15T10:26:07;8.37;;;2.33;;
30571;SDS011;17348;50.948;10.696;2023-04-15T10:29:12;3.03;;;1.67;;
30571;SDS011;17348;50.948;10.696;2023-04-15T10:32:16;4.60;;;2.47;;
30571;SDS011;17348;50.948;10.696;2023-04-15T10:35:22;9.97;;;2.80;;
30571;SDS011;17348;50.948;10.696;2023-04-15T10:38:33;3.87;;;1.97;;
30571;SDS011;17348;50.948;10.696;2023-04-15T10:41:36;4.65;;;2.40;;
30571;SDS011;17348;50.948;10.696;2023-04-15T10:44:40;5.77;;;3.10;;
30571;SDS011;17348;50.948;10.696;2023-04-15T10:47:44;6.47;;;3.03;;
30571;SDS011;17348;50.948;10.696;2023-04-15T10:50:56;10.43;;;4.03;;
30571;SDS011;17348;50.948;10.696;2023-04-15T10:53:58;9.50;;;4.43;;
30571;SDS011;17348;50.948;10.696;2023-04-15T10:57:08;10.30;;;5.00;;
30571;SDS011;17348;50.948;10.696;2023-04-15T11:00:16;10.67;;;4.13;;
30571;SDS011;17348;50.948;10.696;2023-04-15T11:03:33;6.47;;;3.67;;
30571;SDS011;17348;50.948;10.696;2023-04-15T11:06:43;5.07;;;2.93;;
30571;SDS011;17348;50.948;10.696;2023-04-15T11:09:46;5.73;;;3.43;;
30571;SDS011;17348;50.948;10.696;2023-04-15T11:12:49;4.17;;;2.73;;
30571;SDS011;17348;50.948;10.696;2023-04-15T11:15:59;5.20;;;2.40;;
30571;SDS011;17348;50.948;10.696;2023-04-15T11:19:02;3.73;;;2.53;;
30571;SDS011;17348;50.948;10.696;2023-04-15T11:22:09;4.70;;;2.57;;
30571;SDS011;17348;50.948;10.696;2023-04-15T11:25:15;5.27;;;2.50;;
30571;SDS011;17348;50.948;10.696;2023-04-15T11:28:24;5.50;;;2.40;;
30571;SDS011;17348;50.948;10.696;2023-04-15T11:31:28;4.60;;;2.20;;
30571;SDS011;17348;50.948;10.696;2023-04-15T11:34:31;4.67;;;2.27;;
30571;SDS011;17348;50.948;10.696;2023-04-15T11:37:34;2.87;;;1.90;;
30571;SDS011;17348;50.948;10.696;2023-04-15T11:40:37;2.87;;;2.10;;
30571;SDS011;17348;50.948;10.696;2023-04-15T11:43:40;3.53;;;2.40;;
30571;SDS011;17348;50.948;10.696;2023-04-15T11:46:42;3.70;;;2.20;;
30571;SDS011;17348;50.948;10.696;2023-04-15T11:49:45;5.90;;;2.33;;
30571;SDS011;17348;50.948;10.696;2023-04-15T11:52:55;4.63;;;2.10;;
30571;SDS011;17348;50.948;10.696;2023-04-15T11:59:01;6.33;;;1.90;;
30571;SDS011;17348;50.948;10.696;2023-04-15T12:02:10;2.70;;;1.57;;
30571;SDS011;17348;50.948;10.696;2023-04-15T12:05:13;2.67;;;1.37;;
30571;SDS011;17348;50.948;10.696;2023-04-15T12:08:17;2.10;;;1.60;;
30571;SDS011;17348;50.948;10.696;2023-04-15T12:11:20;2.77;;;1.43;;
30571;SDS011;17348;50.948;10.696;2023-04-15T12:14:29;2.03;;;1.40;;
30571;SDS011;17348;50.948;10.696;2023-04-15T12:17:33;2.80;;;1.83;;
30571;SDS011;17348;50.948;10.696;2023-04-15T12:20:42;4.43;;;1.93;;
30571;SDS011;17348;50.948;10.696;2023-04-15T12:23:49;3.67;;;1.60;;
30571;SDS011;17348;50.948;10.696;2023-04-15T12:26:53;5.70;;;2.20;;
30571;SDS011;17348;50.948;10.696;2023-04-15T12:30:02;3.23;;;1.67;;
30571;SDS011;17348;50.948;10.696;2023-04-15T12:33:05;2.73;;;1.50;;
30571;SDS011;17348;50.948;10.696;2023-04-15T12:36:07;4.75;;;2.13;;
30571;SDS011;17348;50.948;10.696;2023-04-15T12:39:11;2.67;;;1.70;;
30571;SDS011;17348;50.948;10.696;2023-04-15T12:42:14;2.07;;;1.60;;
30571;SDS011;17348;50.948;10.696;2023-04-15T12:45:17;1.90;;;1.60;;
30571;SDS011;17348;50.948;10.696;2023-04-15T12:48:19;2.37;;;1.33;;
30571;SDS011;17348;50.948;10.696;2023-04-15T12:51:22;3.22;;;1.75;;
30571;SDS011;17348;50.948;10.696;2023-04-15T12:54:25;2.53;;;1.52;;
30571;SDS011;17348;50.948;10.696;2023-04-15T12:57:28;4.10;;;2.00;;
30571;SDS011;17348;50.948;10.696;2023-04-15T13:00:32;2.67;;;1.30;;
30571;SDS011;17348;50.948;10.696;2023-04-15T13:03:34;2.47;;;1.80;;
30571;SDS011;17348;50.948;10.696;2023-04-15T13:06:37;3.43;;;1.93;;
30571;SDS011;17348;50.948;10.696;2023-04-15T13:09:41;2.92;;;1.80;;
30571;SDS011;17348;50.948;10.696;2023-04-15T13:12:43;2.10;;;1.50;;
30571;SDS011;17348;50.948;10.696;2023-04-15T13:15:48;2.70;;;1.65;;
30571;SDS011;17348;50.948;10.696;2023-04-15T13:18:51;3.10;;;1.63;;
30571;SDS011;17348;50.948;10.696;2023-04-15T13:21:53;1.27;;;1.15;;
30571;SDS011;17348;50.948;10.696;2023-04-15T13:24:57;2.40;;;1.75;;
30571;SDS011;17348;50.948;10.696;2023-04-15T13:27:59;2.13;;;1.67;;
30571;SDS011;17348;50.948;10.696;2023-04-15T13:31:02;3.40;;;1.80;;
30571;SDS011;17348;50.948;10.696;2023-04-15T13:34:04;2.58;;;1.77;;
30571;SDS011;17348;50.948;10.696;2023-04-15T13:37:06;3.42;;;2.05;;
30571;SDS011;17348;50.948;10.696;2023-04-15T13:40:11;2.70;;;1.63;;
30571;SDS011;17348;50.948;10.696;2023-04-15T13:43:13;2.47;;;1.67;;
30571;SDS011;17348;50.948;10.696;2023-04-15T13:46:17;3.03;;;1.80;;
30571;SDS011;17348;50.948;10.696;2023-04-15T13:49:19;2.50;;;1.60;;
30571;SDS011;17348;50.948;10.696;2023-04-15T13:52:21;6.00;;;2.33;;
30571;SDS011;17348;50.948;10.696;2023-04-15T13:55:26;2.25;;;1.52;;
30571;SDS011;17348;50.948;10.696;2023-04-15T13:58:28;2.43;;;1.80;;
30571;SDS011;17348;50.948;10.696;2023-04-15T14:01:31;3.10;;;1.90;;
30571;SDS011;17348;50.948;10.696;2023-04-15T14:04:33;3.63;;;2.10;;
30571;SDS011;17348;50.948;10.696;2023-04-15T14:07:35;2.85;;;1.90;;
30571;SDS011;17348;50.948;10.696;2023-04-15T14:10:39;4.32;;;2.42;;
30571;SDS011;17348;50.948;10.696;2023-04-15T14:13:43;4.30;;;2.50;;
30571;SDS011;17348;50.948;10.696;2023-04-15T14:16:46;5.25;;;2.95;;
30571;SDS011;17348;50.948;10.696;2023-04-15T14:19:48;5.85;;;2.67;;
30571;SDS011;17348;50.948;10.696;2023-04-15T14:22:51;4.80;;;2.50;;
30571;SDS011;17348;50.948;10.696;2023-04-15T14:25:54;2.25;;;1.40;;
30571;SDS011;17348;50.948;10.696;2023-04-15T14:28:57;6.15;;;2.72;;
30571;SDS011;17348;50.948;10.696;2023-04-15T14:31:59;6.53;;;3.22;;
30571;SDS011;17348;50.948;10.696;2023-04-15T14:35:02;4.30;;;2.55;;
30571;SDS011;17348;50.948;10.696;2023-04-15T14:38:05;5.53;;;2.70;;
30571;SDS011;17348;50.948;10.696;2023-04-15T14:41:11;5.30;;;2.90;;
30571;SDS011;17348;50.948;10.696;2023-04-15T14:44:13;4.90;;;2.23;;
30571;SDS011;17348;50.948;10.696;2023-04-15T14:47:16;3.53;;;2.25;;
30571;SDS011;17348;50.948;10.696;2023-04-15T14:50:18;7.63;;;3.20;;
30571;SDS011;17348;50.948;10.696;2023-04-15T14:53:21;4.78;;;3.05;;
30571;SDS011;17348;50.948;10.696;2023-04-15T14:56:25;6.30;;;3.05;;
30571;SDS011;17348;50.948;10.696;2023-04-15T14:59:27;6.05;;;3.33;;
30571;SDS011;17348;50.948;10.696;2023-04-15T15:02:30;4.95;;;3.20;;
30571;SDS011;17348;50.948;10.696;2023-04-15T15:05:32;4.90;;;3.10;;
30571;SDS011;17348;50.948;10.696;2023-04-15T15:08:34;6.45;;;3.15;;
30571;SDS011;17348;50.948;10.696;2023-04-15T15:11:38;13.82;;;5.43;;
30571;SDS011;17348;50.948;10.696;2023-04-15T15:14:41;8.27;;;4.47;;
30571;SDS011;17348;50.948;10.696;2023-04-15T15:17:43;8.18;;;4.47;;
30571;SDS011;17348;50.948;10.696;2023-04-15T15:20:46;6.38;;;3.30;;
30571;SDS011;17348;50.948;10.696;2023-04-15T15:23:49;7.38;;;3.67;;
30571;SDS011;17348;50.948;10.696;2023-04-15T15:26:52;6.53;;;3.42;;
30571;SDS011;17348;50.948;10.696;2023-04-15T15:29:55;6.22;;;3.00;;
30571;SDS011;17348;50.948;10.696;2023-04-15T15:32:57;5.47;;;3.60;;
30571;SDS011;17348;50.948;10.696;2023-04-15T15:35:59;7.68;;;3.88;;
30571;SDS011;17348;50.948;10.696;2023-04-15T15:39:02;6.72;;;3.13;;
30571;SDS011;17348;50.948;10.696;2023-04-15T15:42:06;8.55;;;3.88;;
30571;SDS011;17348;50.948;10.696;2023-04-15T15:45:09;7.45;;;3.85;;
30571;SDS011;17348;50.948;10.696;2023-04-15T15:48:11;9.68;;;4.45;;
30571;SDS011;17348;50.948;10.696;2023-04-15T15:51:14;7.28;;;3.78;;
30571;SDS011;17348;50.948;10.696;2023-04-15T15:54:16;7.95;;;3.90;;
30571;SDS011;17348;50.948;10.696;2023-04-15T15:57:20;10.18;;;4.28;;
30571;SDS011;17348;50.948;10.696;2023-04-15T16:00:22;8.50;;;4.25;;
30571;SDS011;17348;50.948;10.696;2023-04-15T16:03:25;7.65;;;3.60;;
30571;SDS011;17348;50.948;10.696;2023-04-15T16:06:27;6.30;;;3.58;;
30571;SDS011;17348;50.948;10.696;2023-04-15T16:09:31;8.82;;;3.85;;
30571;SDS011;17348;50.948;10.696;2023-04-15T16:12:35;9.13;;;4.50;;
30571;SDS011;17348;50.948;10.696;2023-04-15T16:15:38;7.45;;;3.60;;
30571;SDS011;17348;50.948;10.696;2023-04-15T16:18:43;8.25;;;4.05;;
30571;SDS011;17348;50.948;10.696;2023-04-15T16:21:45;13.25;;;4.88;;
30571;SDS011;17348;50.948;10.696;2023-04-15T16:24:48;11.18;;;5.28;;
30571;SDS011;17348;50.948;10.696;2023-04-15T16:27:52;9.27;;;3.78;;
30571;SDS011;17348;50.948;10.696;2023-04-15T16:30:54;9.32;;;4.15;;
30571;SDS011;17348;50.948;10.696;2023-04-15T16:33:57;8.15;;;4.50;;
30571;SDS011;17348;50.948;10.696;2023-04-15T16:36:59;8.32;;;4.45;;
30571;SDS011;17348;50.948;10.696;2023-04-15T16:40:02;6.93;;;3.70;;
30571;SDS011;17348;50.948;10.696;2023-04-15T16:43:06;10.32;;;5.20;;
30571;SDS011;17348;50.948;10.696;2023-04-15T16:46:10;8.07;;;4.40;;
30571;SDS011;17348;50.948;10.696;2023-04-15T16:49:13;7.97;;;4.15;;
30571;SDS011;17348;50.948;10.696;2023-04-15T16:52:15;9.25;;;4.55;;
30571;SDS011;17348;50.948;10.696;2023-04-15T16:55:18;6.28;;;3.50;;
30571;SDS011;17348;50.948;10.696;2023-04-15T16:58:21;8.93;;;4.38;;
30571;SDS011;17348;50.948;10.696;2023-04-15T17:01:24;7.07;;;3.75;;
30571;SDS011;17348;50.948;10.696;2023-04-15T17:04:26;8.55;;;4.28;;
30571;SDS011;17348;50.948;10.696;2023-04-15T17:07:29;6.53;;;4.30;;
30571;SDS011;17348;50.948;10.696;2023-04-15T17:10:31;8.07;;;4.05;;
30571;SDS011;17348;50.948;10.696;2023-04-15T17:13:35;8.20;;;4.10;;
30571;SDS011;17348;50.948;10.696;2023-04-15T17:16:37;10.23;;;4.28;;
30571;SDS011;17348;50.948;10.696;2023-04-15T17:19:41;9.63;;;4.53;;
30571;SDS011;17348;50.948;10.696;2023-04-15T17:22:44;7.80;;;4.17;;
30571;SDS011;17348;50.948;10.696;2023-04-15T17:25:46;9.38;;;4.53;;
30571;SDS011;17348;50.948;10.696;2023-04-15T17:28:52;11.67;;;5.23;;
30571;SDS011;17348;50.948;10.696;2023-04-15T17:31:54;11.90;;;5.33;;
30571;SDS011;17348;50.948;10.696;2023-04-15T17:34:57;12.13;;;5.20;;
30571;SDS011;17348;50.948;10.696;2023-04-15T17:37:59;12.13;;;5.72;;
30571;SDS011;17348;50.948;10.696;2023-04-15T17:41:02;20.67;;;7.88;;
30571;SDS011;17348;50.948;10.696;2023-04-15T17:44:06;10.40;;;4.25;;
30571;SDS011;17348;50.948;10.696;2023-04-15T17:47:08;10.32;;;5.45;;
30571;SDS011;17348;50.948;10.696;2023-04-15T17:50:11;9.40;;;5.40;;
30571;SDS011;17348;50.948;10.696;2023-04-15T17:53:13;11.05;;;5.40;;
30571;SDS011;17348;50.948;10.696;2023-04-15T17:56:16;9.87;;;5.00;;
30571;SDS011;17348;50.948;10.696;2023-04-15T17:59:19;12.35;;;5.97;;
30571;SDS011;17348;50.948;10.696;2023-04-15T18:02:22;12.35;;;6.13;;
30571;SDS011;17348;50.948;10.696;2023-04-15T18:05:24;12.80;;;5.93;;
30571;SDS011;17348;50.948;10.696;2023-04-15T18:08:26;9.47;;;5.27;;